Time;durP1;ratioP1;P1;durP2;ratioP2;P2;SDS_P1;SDS_P2;PMS_P1;PMS_P2;Temp;Humidity;BMP_temperature;BMP_pressure;BME280_temperature;BME280_humidity;BME280_pressure;Samples;Min_cycle;Max_cycle;Signal;HPM_P1;HPM_P2
2022/06/14 00:03:00;;;;;;;1.95;1.58;;;;;;;;;;5132706;27;20153;-87
2022/06/14 00:05:26;;;;;;;1.50;1.40;;;;;;;;;;5135277;27;20102;-87
2022/06/14 00:07:51;;;;;;;2.35;1.50;;;;;;;;;;5135292;27;20074;-88
2022/06/14 00:10:17;;;;;;;2.22;1.70;;;;;;;;;;5116382;27;20030;-88
2022/06/14 00:12:42;;;;;;;1.80;1.50;;;;;;;;;;5134892;27;20023;-87
2022/06/14 00:15:09;;;;;;;1.92;1.58;;;;;;;;;;5133959;27;20071;-88
2022/06/14 00:17:35;;;;;;;1.60;1.50;;;;;;;;;;5134665;27;20034;-90
2022/06/14 00:20:01;;;;;;;3.83;1.67;;;;;;;;;;5117065;27;20019;-88
2022/06/14 00:22:27;;;;;;;1.67;1.45;;;;;;;;;;5115018;27;20061;-87
2022/06/14 00:24:55;;;;;;;1.90;1.70;;;;;;;;;;5116604;27;20054;-87
2022/06/14 00:27:21;;;;;;;2.08;1.60;;;;;;;;;;5134928;27;20030;-87
2022/06/14 00:29:47;;;;;;;1.70;1.50;;;;;;;;;;5116160;27;20031;-87
2022/06/14 00:32:12;;;;;;;1.73;1.60;;;;;;;;;;5134367;27;20396;-88
2022/06/14 00:34:38;;;;;;;1.70;1.60;;;;;;;;;;5115883;27;20372;-86
2022/06/14 00:37:03;;;;;;;2.15;1.73;;;;;;;;;;5133832;27;20131;-88
2022/06/14 00:39:29;;;;;;;2.33;1.50;;;;;;;;;;5116340;27;20034;-87
2022/06/14 00:41:57;;;;;;;2.50;1.45;;;;;;;;;;5115983;27;20023;-86
2022/06/14 00:44:27;;;;;;;2.78;1.80;;;;;;;;;;5134315;27;20370;-88
2022/06/14 00:47:00;;;;;;;;;;;;;;;;;;5116079;27;20027;-87
2022/06/14 00:49:31;;;;;;;1.65;1.42;;;;;;;;;;5113780;27;19994;-87
2022/06/14 00:52:14;;;;;;;1.90;1.63;;;;;;;;;;5112916;27;20031;-87
2022/06/14 00:54:43;;;;;;;1.58;1.48;;;;;;;;;;5131610;27;20356;-89
2022/06/14 00:57:18;;;;;;;2.88;1.70;;;;;;;;;;5116846;27;20026;-87
2022/06/14 01:00:01;;;;;;;2.05;1.50;;;;;;;;;;5115385;27;20100;-87
2022/06/14 01:02:31;;;;;;;1.92;1.55;;;;;;;;;;5132770;27;20023;-87
2022/06/14 01:05:00;;;;;;;2.25;1.58;;;;;;;;;;5134065;27;20085;-88
2022/06/14 01:07:36;;;;;;;1.77;1.58;;;;;;;;;;5115310;27;20046;-87
2022/06/14 01:10:07;;;;;;;4.40;1.58;;;;;;;;;;5113493;27;20379;-87
2022/06/14 01:12:36;;;;;;;2.10;1.50;;;;;;;;;;5133205;27;20033;-89
2022/06/14 01:15:12;;;;;;;2.70;1.60;;;;;;;;;;5132962;27;20023;-87
2022/06/14 01:17:41;;;;;;;1.58;1.40;;;;;;;;;;5114843;27;20031;-87
2022/06/14 01:20:08;;;;;;;1.83;1.60;;;;;;;;;;5115609;27;20405;-88
2022/06/14 01:22:34;;;;;;;2.50;1.58;;;;;;;;;;5114857;27;20031;-85
2022/06/14 01:25:02;;;;;;;1.73;1.50;;;;;;;;;;5115025;27;20034;-87
2022/06/14 01:27:30;;;;;;;2.03;1.80;;;;;;;;;;5133285;27;20065;-87
2022/06/14 01:30:11;;;;;;;1.85;1.60;;;;;;;;;;5131879;27;20019;-87
2022/06/14 01:33:00;;;;;;;1.65;1.55;;;;;;;;;;5130969;27;20031;-87
2022/06/14 01:35:28;;;;;;;1.77;1.63;;;;;;;;;;5132964;27;20035;-88
2022/06/14 01:37:57;;;;;;;1.98;1.70;;;;;;;;;;5133462;27;20051;-87
2022/06/14 01:40:34;;;;;;;1.70;1.60;;;;;;;;;;5114227;27;20383;-87
2022/06/14 01:43:45;;;;;;;2.03;1.70;;;;;;;;;;5129598;27;20052;-88
2022/06/14 01:47:00;;;;;;;1.80;1.70;;;;;;;;;;5099644;27;20478;-86
2022/06/14 01:53:21;;;;;;;1.92;1.70;;;;;;;;;;5132253;27;20112;-86
2022/06/14 01:55:56;;;;;;;2.03;1.70;;;;;;;;;;5112755;27;20027;-87
2022/06/14 01:58:29;;;;;;;2.78;1.65;;;;;;;;;;5128811;27;20035;-87
2022/06/14 02:01:06;;;;;;;2.55;1.60;;;;;;;;;;5132251;27;20378;-89
2022/06/14 02:07:24;;;;;;;1.70;1.60;;;;;;;;;;5132908;27;20080;-88
2022/06/14 02:09:59;;;;;;;;;;;;;;;;;;5132311;27;20030;-87
2022/06/14 02:12:57;;;;;;;1.75;1.55;;;;;;;;;;5132571;27;19915;-88
2022/06/14 02:15:33;;;;;;;1.83;1.73;;;;;;;;;;5114400;27;20034;-87
2022/06/14 02:18:20;;;;;;;2.30;1.70;;;;;;;;;;5131042;27;20084;-86
2022/06/14 02:20:53;;;;;;;1.70;1.55;;;;;;;;;;5113991;28;20019;-86
2022/06/14 02:23:20;;;;;;;1.77;1.67;;;;;;;;;;5130500;27;20098;-87
2022/06/14 02:25:54;;;;;;;1.95;1.75;;;;;;;;;;5113280;28;20543;-89
2022/06/14 02:28:27;;;;;;;2.28;1.60;;;;;;;;;;5132742;28;20785;-88
2022/06/14 02:31:01;;;;;;;1.63;1.52;;;;;;;;;;5114344;28;20161;-89
2022/06/14 02:33:34;;;;;;;1.80;1.70;;;;;;;;;;5132469;28;20098;-88
2022/06/14 02:36:08;;;;;;;1.60;1.50;;;;;;;;;;5114288;28;20019;-89
2022/06/14 02:38:39;;;;;;;2.05;1.70;;;;;;;;;;5132211;28;20491;-89
2022/06/14 02:41:14;;;;;;;1.88;1.52;;;;;;;;;;5118943;27;20030;-88
2022/06/14 02:43:49;;;;;;;1.92;1.73;;;;;;;;;;5117533;27;20105;-88
2022/06/14 02:46:20;;;;;;;1.88;1.70;;;;;;;;;;5137372;27;20027;-89
2022/06/14 02:49:03;;;;;;;2.58;1.67;;;;;;;;;;5117744;27;20110;-88
2022/06/14 02:51:34;;;;;;;1.88;1.75;;;;;;;;;;5136899;27;20019;-88
2022/06/14 02:54:12;;;;;;;1.50;1.40;;;;;;;;;;5135691;27;20018;-87
2022/06/14 02:56:40;;;;;;;1.83;1.60;;;;;;;;;;5118118;27;20056;-88
2022/06/14 02:59:09;;;;;;;1.55;1.45;;;;;;;;;;5117551;27;20364;-88
2022/06/14 03:01:46;;;;;;;1.98;1.65;;;;;;;;;;5118332;27;20432;-87
2022/06/14 03:04:45;;;;;;;1.92;1.70;;;;;;;;;;5135184;27;20027;-88
2022/06/14 03:07:20;;;;;;;1.77;1.67;;;;;;;;;;5116963;27;20058;-87
2022/06/14 03:09:47;;;;;;;2.08;1.73;;;;;;;;;;5136247;27;20037;-88
2022/06/14 03:12:35;;;;;;;2.15;1.60;;;;;;;;;;5136101;27;20110;-90
2022/06/14 03:15:25;;;;;;;2.17;1.60;;;;;;;;;;5135130;27;20019;-88
2022/06/14 03:18:09;;;;;;;1.83;1.63;;;;;;;;;;5117078;27;20035;-87
2022/06/14 03:20:34;;;;;;;2.35;1.58;;;;;;;;;;5117383;27;20039;-87
2022/06/14 03:23:24;;;;;;;3.05;2.00;;;;;;;;;;5117341;27;20550;-88
2022/06/14 03:26:16;;;;;;;;;;;;;;;;;;5115577;27;20110;-88
2022/06/14 03:29:09;;;;;;;2.22;2.03;;;;;;;;;;5101193;27;19911;-87
2022/06/14 03:31:53;;;;;;;2.53;1.85;;;;;;;;;;5115911;27;20019;-88
2022/06/14 03:34:25;;;;;;;1.67;1.50;;;;;;;;;;5133963;27;20038;-87
2022/06/14 03:36:52;;;;;;;1.73;1.63;;;;;;;;;;5116952;27;20039;-88
2022/06/14 03:39:30;;;;;;;1.77;1.60;;;;;;;;;;5116962;27;20438;-88
2022/06/14 03:41:55;;;;;;;1.70;1.60;;;;;;;;;;5133816;27;20027;-88
2022/06/14 03:44:23;;;;;;;1.55;1.42;;;;;;;;;;5134976;27;20026;-87
2022/06/14 03:47:12;;;;;;;1.75;1.42;;;;;;;;;;5135362;27;20489;-88
2022/06/14 03:49:44;;;;;;;1.70;1.60;;;;;;;;;;5134974;27;20030;-88
2022/06/14 03:52:35;;;;;;;1.90;1.30;;;;;;;;;;5115687;27;20447;-88
2022/06/14 03:55:19;;;;;;;2.20;1.45;;;;;;;;;;5133765;27;20360;-88
2022/06/14 03:58:02;;;;;;;1.75;1.48;;;;;;;;;;5132813;27;20055;-88
2022/06/14 04:00:49;;;;;;;1.48;1.27;;;;;;;;;;5116269;27;20030;-88
2022/06/14 04:03:49;;;;;;;1.45;1.35;;;;;;;;;;5114410;27;20027;-89
2022/06/14 04:06:17;;;;;;;;;;;;;;;;;;5116184;27;20038;-88
2022/06/14 04:09:05;;;;;;;1.63;1.52;;;;;;;;;;5135275;27;19915;-86
2022/06/14 04:11:47;;;;;;;1.63;1.30;;;;;;;;;;5134978;27;20106;-88
2022/06/14 04:14:41;;;;;;;1.20;1.10;;;;;;;;;;5117076;27;20730;-87
2022/06/14 04:17:33;;;;;;;1.45;1.35;;;;;;;;;;5133871;27;20118;-86
2022/06/14 04:20:24;;;;;;;1.10;1.00;;;;;;;;;;5136191;27;20104;-87
2022/06/14 04:23:06;;;;;;;1.98;1.25;;;;;;;;;;5116475;27;20114;-87
2022/06/14 04:25:41;;;;;;;1.00;1.00;;;;;;;;;;5118022;27;20019;-88
2022/06/14 04:28:18;;;;;;;1.75;1.20;;;;;;;;;;5135669;27;20064;-89
2022/06/14 04:31:18;;;;;;;1.20;1.10;;;;;;;;;;5117307;27;20239;-87
2022/06/14 04:33:49;;;;;;;;;;;;;;;;;;5134612;27;20031;-89
2022/06/14 04:36:25;;;;;;;2.00;1.05;;;;;;;;;;5134296;27;19915;-87
2022/06/14 04:39:06;;;;;;;1.30;1.20;;;;;;;;;;5115420;27;20146;-86
2022/06/14 04:41:39;;;;;;;1.30;1.15;;;;;;;;;;5132928;27;20026;-90
2022/06/14 04:44:27;;;;;;;1.10;1.00;;;;;;;;;;5115638;27;20091;-88
2022/06/14 04:46:58;;;;;;;1.20;1.10;;;;;;;;;;5113836;27;20519;-86
2022/06/14 04:49:30;;;;;;;1.10;1.00;;;;;;;;;;5114296;27;20031;-87
2022/06/14 04:52:21;;;;;;;1.65;1.10;;;;;;;;;;5131237;27;20026;-86
2022/06/14 04:54:53;;;;;;;1.50;1.40;;;;;;;;;;5098170;27;20028;-89
2022/06/14 04:57:35;;;;;;;1.30;1.20;;;;;;;;;;5135154;27;20054;-87
2022/06/14 05:00:14;;;;;;;1.73;1.27;;;;;;;;;;5115813;27;20050;-87
2022/06/14 05:02:54;;;;;;;3.15;1.33;;;;;;;;;;5132093;27;20386;-86
2022/06/14 05:05:36;;;;;;;1.30;1.20;;;;;;;;;;5115204;27;20072;-86
2022/06/14 05:08:19;;;;;;;1.40;1.30;;;;;;;;;;5112397;27;20424;-87
2022/06/14 05:10:48;;;;;;;3.00;1.77;;;;;;;;;;5111480;27;20368;-88
2022/06/14 05:13:38;;;;;;;1.20;1.10;;;;;;;;;;5115363;27;20031;-86
2022/06/14 05:16:30;;;;;;;1.40;1.30;;;;;;;;;;5133626;27;20821;-87
2022/06/14 05:18:59;;;;;;;2.40;1.20;;;;;;;;;;5114370;27;20038;-86
2022/06/14 05:21:33;;;;;;;1.23;1.13;;;;;;;;;;5133618;27;20023;-86
2022/06/14 05:24:00;;;;;;;0.93;0.93;;;;;;;;;;5130540;27;20478;-86
2022/06/14 05:26:53;;;;;;;4.55;1.40;;;;;;;;;;5133612;27;20027;-87
2022/06/14 05:29:43;;;;;;;1.08;1.08;;;;;;;;;;5132685;27;20074;-87
2022/06/14 05:32:09;;;;;;;3.08;1.10;;;;;;;;;;5131770;27;20050;-87
2022/06/14 05:34:59;;;;;;;1.27;1.15;;;;;;;;;;5133563;27;20046;-87
2022/06/14 05:38:02;;;;;;;1.40;1.10;;;;;;;;;;5114026;27;20050;-86
2022/06/14 05:40:27;;;;;;;1.85;1.33;;;;;;;;;;5131590;27;20033;-88
2022/06/14 05:43:15;;;;;;;1.33;1.23;;;;;;;;;;5133428;27;20098;-87
2022/06/14 05:45:59;;;;;;;2.15;1.30;;;;;;;;;;5113264;27;20118;-87
2022/06/14 05:48:30;;;;;;;3.00;1.40;;;;;;;;;;5114581;27;20023;-85
2022/06/14 05:50:58;;;;;;;1.30;1.17;;;;;;;;;;5113570;27;20115;-85
2022/06/14 05:53:37;;;;;;;1.60;1.50;;;;;;;;;;5114575;27;20034;-86
2022/06/14 05:56:32;;;;;;;2.15;1.50;;;;;;;;;;5114957;27;20027;-85
2022/06/14 05:59:11;;;;;;;1.33;1.23;;;;;;;;;;5114339;27;20110;-84
2022/06/14 06:02:21;;;;;;;1.50;1.35;;;;;;;;;;5115262;27;20034;-84
2022/06/14 06:05:19;;;;;;;2.42;1.25;;;;;;;;;;5128417;27;20061;-87
2022/06/14 06:07:52;;;;;;;1.52;1.40;;;;;;;;;;5097437;27;20050;-86
2022/06/14 06:10:27;;;;;;;1.30;1.20;;;;;;;;;;5131128;27;20110;-87
2022/06/14 06:12:57;;;;;;;1.38;1.27;;;;;;;;;;5111627;28;20023;-86
2022/06/14 06:15:28;;;;;;;1.73;1.27;;;;;;;;;;5133510;27;20459;-84
2022/06/14 06:18:01;;;;;;;1.63;1.35;;;;;;;;;;5112680;28;20030;-86
2022/06/14 06:20:29;;;;;;;1.42;1.33;;;;;;;;;;5127939;27;20098;-85
2022/06/14 06:23:13;;;;;;;1.30;1.20;;;;;;;;;;5130358;27;20058;-86
2022/06/14 06:25:47;;;;;;;1.50;1.40;;;;;;;;;;5112137;27;20079;-84
2022/06/14 06:28:21;;;;;;;1.58;1.40;;;;;;;;;;5128793;28;20038;-88
2022/06/14 06:30:56;;;;;;;2.08;1.10;;;;;;;;;;5131356;28;20019;-86
2022/06/14 06:33:24;;;;;;;2.33;1.38;;;;;;;;;;5132741;28;20023;-86
2022/06/14 06:36:22;;;;;;;1.30;1.10;;;;;;;;;;5133271;28;20034;-86
2022/06/14 06:39:00;;;;;;;1.85;1.30;;;;;;;;;;5131308;28;20536;-88
2022/06/14 06:44:21;;;;;;;1.83;1.55;;;;;;;;;;5133211;28;20069;-88
2022/06/14 06:46:55;;;;;;;2.30;1.50;;;;;;;;;;5132595;28;20027;-87
2022/06/14 06:49:29;;;;;;;2.15;1.20;;;;;;;;;;5114350;28;20176;-86
2022/06/14 06:52:00;;;;;;;1.33;1.20;;;;;;;;;;5114382;28;20041;-85
2022/06/14 06:54:36;;;;;;;2.25;2.00;;;;;;;;;;5133066;28;20050;-87
2022/06/14 06:57:03;;;;;;;1.10;1.00;;;;;;;;;;5112911;28;20401;-87
2022/06/14 06:59:40;;;;;;;1.85;1.38;;;;;;;;;;5109386;28;20023;-87
2022/06/14 07:02:21;;;;;;;1.27;1.17;;;;;;;;;;5133137;28;20031;-87
2022/06/14 07:05:05;;;;;;;1.13;1.02;;;;;;;;;;5115216;28;20505;-86
2022/06/14 07:08:00;;;;;;;1.77;1.17;;;;;;;;;;5115533;28;20034;-86
2022/06/14 07:10:30;;;;;;;2.65;1.42;;;;;;;;;;5113064;28;20100;-85
2022/06/14 07:13:04;;;;;;;1.27;1.17;;;;;;;;;;5124908;27;20463;-87
2022/06/14 07:15:41;;;;;;;1.50;1.40;;;;;;;;;;5130461;27;20027;-83
2022/06/14 07:18:28;;;;;;;2.38;1.30;;;;;;;;;;5116112;28;20110;-85
2022/06/14 07:21:17;;;;;;;2.92;1.40;;;;;;;;;;5132451;28;20033;-87
2022/06/14 07:23:59;;;;;;;1.63;1.20;;;;;;;;;;5131326;28;20532;-87
2022/06/14 07:26:40;;;;;;;1.85;1.40;;;;;;;;;;5130176;27;20084;-89
2022/06/14 07:29:27;;;;;;;1.35;1.25;;;;;;;;;;5135703;27;20104;-88
2022/06/14 07:31:57;;;;;;;1.40;1.30;;;;;;;;;;5113758;27;20168;-88
2022/06/14 07:34:24;;;;;;;1.83;1.20;;;;;;;;;;5135317;27;20019;-85
2022/06/14 07:37:18;;;;;;;1.20;1.10;;;;;;;;;;5135384;27;20043;-87
2022/06/14 07:39:54;;;;;;;1.73;1.08;;;;;;;;;;5117669;27;20023;-87
2022/06/14 07:42:41;;;;;;;1.20;1.10;;;;;;;;;;5136211;27;20076;-85
2022/06/14 07:45:21;;;;;;;1.27;1.17;;;;;;;;;;5136047;27;20038;-85
2022/06/14 07:48:00;;;;;;;1.17;1.08;;;;;;;;;;5134225;27;20081;-86
2022/06/14 07:50:40;;;;;;;2.35;1.52;;;;;;;;;;5121026;27;20506;-87
2022/06/14 07:53:27;;;;;;;3.10;1.40;;;;;;;;;;5134601;27;20387;-87
2022/06/14 07:55:56;;;;;;;1.92;1.00;;;;;;;;;;5114851;27;20026;-87
2022/06/14 07:58:30;;;;;;;2.10;1.23;;;;;;;;;;5135840;27;20035;-86
2022/06/14 08:01:07;;;;;;;1.23;1.13;;;;;;;;;;5114041;27;20054;-86
2022/06/14 08:03:51;;;;;;;1.38;1.10;;;;;;;;;;5116892;27;20071;-87
2022/06/14 08:06:21;;;;;;;1.23;1.13;;;;;;;;;;5130571;27;20502;-87
2022/06/14 08:09:05;;;;;;;1.10;1.00;;;;;;;;;;5133740;27;20462;-86
2022/06/14 08:11:40;;;;;;;3.20;1.70;;;;;;;;;;5135892;27;20463;-89
2022/06/14 08:14:22;;;;;;;1.30;1.20;;;;;;;;;;5131229;27;20018;-86
2022/06/14 08:16:49;;;;;;;1.10;1.00;;;;;;;;;;5132313;27;20023;-88
2022/06/14 08:19:44;;;;;;;1.30;1.20;;;;;;;;;;5115546;27;20478;-86
2022/06/14 08:22:22;;;;;;;0.90;0.90;;;;;;;;;;5112727;27;20039;-86
2022/06/14 08:24:56;;;;;;;1.20;1.10;;;;;;;;;;5130046;27;20050;-86
2022/06/14 08:27:30;;;;;;;1.20;1.10;;;;;;;;;;5133162;27;20038;-85
2022/06/14 08:30:10;;;;;;;1.90;1.30;;;;;;;;;;5116431;27;20123;-85
2022/06/14 08:32:45;;;;;;;1.40;1.23;;;;;;;;;;5116557;27;20023;-88
2022/06/14 08:35:13;;;;;;;1.15;1.05;;;;;;;;;;5116265;27;20089;-88
2022/06/14 08:38:20;;;;;;;1.38;1.27;;;;;;;;;;5133298;27;20047;-88
2022/06/14 08:41:41;;;;;;;2.10;1.00;;;;;;;;;;5042784;28;20112;-89
2022/06/14 08:44:23;;;;;;;1.20;1.10;;;;;;;;;;5015227;28;20032;-85
2022/06/14 08:47:02;;;;;;;1.35;1.20;;;;;;;;;;5014961;28;20032;-87
2022/06/14 08:49:39;;;;;;;;;;;;;;;;;;5082174;27;20545;-85
2022/06/14 08:52:35;;;;;;;1.30;0.95;;;;;;;;;;5149365;27;19923;-87
2022/06/14 08:55:19;;;;;;;1.58;1.10;;;;;;;;;;5116465;27;20422;-89
2022/06/14 08:57:56;;;;;;;2.08;0.95;;;;;;;;;;5126368;27;20030;-89
2022/06/14 09:00:44;;;;;;;1.30;1.08;;;;;;;;;;5131597;27;20037;-85
2022/06/14 09:03:46;;;;;;;1.27;1.17;;;;;;;;;;5132021;27;20052;-87
2022/06/14 09:06:20;;;;;;;0.85;0.85;;;;;;;;;;5115705;27;20085;-86
2022/06/14 09:09:23;;;;;;;2.10;1.10;;;;;;;;;;5134743;27;20034;-85
2022/06/14 09:12:04;;;;;;;1.05;1.00;;;;;;;;;;5114788;27;20071;-86
2022/06/14 09:14:32;;;;;;;1.30;1.20;;;;;;;;;;5115679;27;20086;-86
2022/06/14 09:17:34;;;;;;;1.35;1.10;;;;;;;;;;5115872;27;20474;-86
2022/06/14 09:20:10;;;;;;;1.55;1.00;;;;;;;;;;5113779;27;20026;-88
2022/06/14 09:22:47;;;;;;;2.42;1.08;;;;;;;;;;5115527;27;20054;-86
2022/06/14 09:25:59;;;;;;;1.63;1.23;;;;;;;;;;5115854;27;20496;-86
2022/06/14 09:28:33;;;;;;;1.48;1.00;;;;;;;;;;5104741;27;20042;-83
2022/06/14 09:31:25;;;;;;;0.90;0.90;;;;;;;;;;5136339;27;20033;-86
2022/06/14 09:34:35;;;;;;;1.05;0.95;;;;;;;;;;5115308;27;20394;-86
2022/06/14 09:37:34;;;;;;;1.45;1.00;;;;;;;;;;5112998;27;20043;-86
2022/06/14 09:40:24;;;;;;;0.90;0.90;;;;;;;;;;5109453;27;20498;-86
2022/06/14 09:42:58;;;;;;;0.82;0.82;;;;;;;;;;5127771;27;20026;-87
2022/06/14 09:45:36;;;;;;;0.90;0.90;;;;;;;;;;5114924;27;20023;-87
2022/06/14 09:48:58;;;;;;;0.80;0.80;;;;;;;;;;5110141;27;20034;-85
2022/06/14 09:51:32;;;;;;;1.05;0.95;;;;;;;;;;5053587;28;20100;-87
2022/06/14 09:54:10;;;;;;;2.20;1.30;;;;;;;;;;5038610;28;20029;-86
2022/06/14 09:56:48;;;;;;;1.13;1.00;;;;;;;;;;5096242;27;20088;-87
2022/06/14 09:59:35;;;;;;;1.15;0.90;;;;;;;;;;5111602;27;20065;-85
2022/06/14 10:02:35;;;;;;;1.15;1.05;;;;;;;;;;5116567;27;20015;-86
2022/06/14 10:05:13;;;;;;;;;;;;;;;;;;5116150;27;20023;-84
2022/06/14 10:07:56;;;;;;;1.15;1.00;;;;;;;;;;5133351;27;19911;-86
2022/06/14 10:10:44;;;;;;;1.65;1.10;;;;;;;;;;5133455;27;20029;-86
2022/06/14 10:13:48;;;;;;;1.23;1.10;;;;;;;;;;5113751;27;20030;-86
2022/06/14 10:16:33;;;;;;;1.65;1.02;;;;;;;;;;5013954;28;20086;-87
2022/06/14 10:19:15;;;;;;;1.35;0.90;;;;;;;;;;5044103;27;20039;-88
2022/06/14 10:21:49;;;;;;;1.77;0.73;;;;;;;;;;5133204;27;20015;-87
2022/06/14 10:24:23;;;;;;;0.88;0.80;;;;;;;;;;5131436;27;20114;-87
2022/06/14 10:29:58;;;;;;;1.38;0.75;;;;;;;;;;5126719;28;20026;-85
2022/06/14 10:32:45;;;;;;;1.35;0.70;;;;;;;;;;5126756;28;20057;-87
2022/06/14 10:35:28;;;;;;;0.68;0.68;;;;;;;;;;5113046;28;20034;-84
2022/06/14 10:38:00;;;;;;;1.23;0.85;;;;;;;;;;5131764;28;20047;-84
2022/06/14 10:40:59;;;;;;;0.68;0.60;;;;;;;;;;5130856;28;20030;-83
2022/06/14 10:43:44;;;;;;;0.95;0.70;;;;;;;;;;5128712;28;20054;-86
2022/06/14 10:46:33;;;;;;;0.98;0.70;;;;;;;;;;5114396;28;20035;-89
2022/06/14 10:49:10;;;;;;;0.90;0.60;;;;;;;;;;5129227;28;20034;-90
2022/06/14 10:52:20;;;;;;;1.00;0.90;;;;;;;;;;5105944;28;20031;-85
2022/06/14 10:54:51;;;;;;;1.48;1.00;;;;;;;;;;5116043;28;20483;-82
2022/06/14 10:57:37;;;;;;;0.93;0.82;;;;;;;;;;5107735;28;20023;-83
2022/06/14 11:00:21;;;;;;;0.68;0.68;;;;;;;;;;5108711;27;20054;-83
2022/06/14 11:03:12;;;;;;;1.50;0.98;;;;;;;;;;5132635;27;20493;-83
2022/06/14 11:05:57;;;;;;;3.42;1.42;;;;;;;;;;5111573;27;20114;-83
2022/06/14 11:08:34;;;;;;;1.20;1.10;;;;;;;;;;5132057;27;20073;-85
2022/06/14 11:11:26;;;;;;;2.20;1.33;;;;;;;;;;5127301;27;20091;-83
2022/06/14 11:14:21;;;;;;;1.23;1.00;;;;;;;;;;5132578;27;20037;-83
2022/06/14 11:17:00;;;;;;;1.27;1.08;;;;;;;;;;5129387;27;20031;-84
2022/06/14 11:20:02;;;;;;;1.52;1.00;;;;;;;;;;5128547;27;20062;-83
2022/06/14 11:22:56;;;;;;;1.42;1.00;;;;;;;;;;5130921;27;20102;-82
2022/06/14 11:25:56;;;;;;;2.05;1.02;;;;;;;;;;5128884;27;20019;-82
2022/06/14 11:28:51;;;;;;;1.83;1.10;;;;;;;;;;5111499;27;20428;-82
2022/06/14 11:31:39;;;;;;;2.85;1.00;;;;;;;;;;5113076;27;20424;-84
2022/06/14 11:34:23;;;;;;;2.60;1.25;;;;;;;;;;5134838;27;20038;-85
2022/06/14 11:37:14;;;;;;;5.65;2.20;;;;;;;;;;5131333;27;20062;-86
2022/06/14 11:39:48;;;;;;;2.42;1.60;;;;;;;;;;5134433;27;20023;-84
2022/06/14 11:42:28;;;;;;;3.40;1.45;;;;;;;;;;5116791;27;20038;-85
2022/06/14 11:44:56;;;;;;;1.20;1.10;;;;;;;;;;5133395;27;20467;-85
2022/06/14 11:47:33;;;;;;;2.42;1.83;;;;;;;;;;5130729;27;20023;-84
2022/06/14 11:50:40;;;;;;;1.92;1.75;;;;;;;;;;5134595;27;20035;-85
2022/06/14 11:53:26;;;;;;;1.63;1.52;;;;;;;;;;5097566;27;20035;-85
2022/06/14 11:56:22;;;;;;;1.77;1.42;;;;;;;;;;5128793;27;21821;-84
2022/06/14 11:59:05;;;;;;;1.20;1.10;;;;;;;;;;5112844;27;20417;-86
2022/06/14 12:01:37;;;;;;;2.88;1.05;;;;;;;;;;5115341;27;20030;-85
2022/06/14 12:04:21;;;;;;;1.20;1.10;;;;;;;;;;5114191;27;20077;-86
2022/06/14 12:07:17;;;;;;;1.38;1.20;;;;;;;;;;5129844;27;20053;-85
2022/06/14 12:09:45;;;;;;;0.95;0.88;;;;;;;;;;5122998;27;20023;-85
2022/06/14 12:12:16;;;;;;;1.80;1.00;;;;;;;;;;5139506;27;20019;-83
2022/06/14 12:15:07;;;;;;;0.80;0.80;;;;;;;;;;5130263;27;20471;-83
2022/06/14 12:17:52;;;;;;;0.95;0.77;;;;;;;;;;5132723;27;20024;-82
2022/06/14 12:20:23;;;;;;;2.08;1.10;;;;;;;;;;5130368;27;20047;-86
2022/06/14 12:23:05;;;;;;;0.70;0.70;;;;;;;;;;5129919;27;20076;-86
2022/06/14 12:28:57;;;;;;;2.45;1.35;;;;;;;;;;5134329;27;20110;-87
2022/06/14 12:31:51;;;;;;;0.85;0.80;;;;;;;;;;5130566;27;20027;-85
2022/06/14 12:34:26;;;;;;;0.82;0.70;;;;;;;;;;5112213;27;20035;-86
2022/06/14 12:36:58;;;;;;;0.50;0.50;;;;;;;;;;5111695;28;20097;-87
2022/06/14 12:39:29;;;;;;;1.25;0.73;;;;;;;;;;5126699;27;20031;-87
2022/06/14 12:42:17;;;;;;;3.13;0.60;;;;;;;;;;5117318;27;20081;-85
2022/06/14 12:44:58;;;;;;;2.10;0.55;;;;;;;;;;5132316;27;20034;-84
2022/06/14 12:47:48;;;;;;;0.52;0.52;;;;;;;;;;5112729;27;20074;-85
2022/06/14 12:50:22;;;;;;;0.98;0.70;;;;;;;;;;5133393;27;20019;-84
2022/06/14 12:52:56;;;;;;;0.60;0.60;;;;;;;;;;5135043;27;20016;-85
2022/06/14 12:55:34;;;;;;;1.10;1.00;;;;;;;;;;5133279;27;20065;-84
2022/06/14 12:58:02;;;;;;;0.80;0.77;;;;;;;;;;5113228;27;20027;-85
2022/06/14 13:00:40;;;;;;;2.78;1.13;;;;;;;;;;5131763;27;20019;-85
2022/06/14 13:03:19;;;;;;;1.08;0.90;;;;;;;;;;5115040;27;20031;-86
2022/06/14 13:05:47;;;;;;;;;;;;;;;;;;5112137;27;20080;-87
2022/06/14 13:08:31;;;;;;;1.10;0.90;;;;;;;;;;5129463;27;19973;-85
2022/06/14 13:11:19;;;;;;;0.55;0.55;;;;;;;;;;5114803;27;20026;-85
2022/06/14 13:13:44;;;;;;;1.00;0.70;;;;;;;;;;5113716;27;20421;-85
2022/06/14 13:16:12;;;;;;;1.15;1.00;;;;;;;;;;5131465;27;20029;-85
2022/06/14 13:18:38;;;;;;;3.10;1.17;;;;;;;;;;5133378;27;20042;-85
2022/06/14 13:21:15;;;;;;;0.43;0.43;;;;;;;;;;5112066;27;20035;-84
2022/06/14 13:23:45;;;;;;;0.75;0.40;;;;;;;;;;5132381;27;20058;-84
2022/06/14 13:26:30;;;;;;;0.60;0.40;;;;;;;;;;5112191;27;20530;-86
2022/06/14 13:29:17;;;;;;;0.63;0.60;;;;;;;;;;5133013;27;20026;-87
2022/06/14 13:32:18;;;;;;;0.60;0.50;;;;;;;;;;5133028;27;20020;-87
2022/06/14 13:35:01;;;;;;;1.75;0.50;;;;;;;;;;5076040;27;20113;-88
2022/06/14 13:37:54;;;;;;;0.82;0.40;;;;;;;;;;5132112;27;20383;-87
2022/06/14 13:40:42;;;;;;;1.13;0.40;;;;;;;;;;5132512;27;20075;-87
2022/06/14 13:43:26;;;;;;;0.40;0.40;;;;;;;;;;5121004;27;20123;-85
2022/06/14 13:46:09;;;;;;;0.38;0.32;;;;;;;;;;5132692;27;20027;-87
2022/06/14 13:49:02;;;;;;;0.65;0.50;;;;;;;;;;5133111;27;20019;-88
2022/06/14 13:51:35;;;;;;;1.85;0.40;;;;;;;;;;5131075;27;20101;-87
2022/06/14 13:54:36;;;;;;;0.50;0.40;;;;;;;;;;5130271;27;20117;-85
2022/06/14 13:57:32;;;;;;;0.30;0.30;;;;;;;;;;5127049;27;20475;-85
2022/06/14 14:00:13;;;;;;;0.50;0.40;;;;;;;;;;5109864;27;20400;-84
2022/06/14 14:02:59;;;;;;;0.40;0.40;;;;;;;;;;5113744;27;20016;-86
2022/06/14 14:05:34;;;;;;;0.93;0.47;;;;;;;;;;5131009;27;20026;-85
2022/06/14 14:08:15;;;;;;;0.75;0.40;;;;;;;;;;5130102;27;20023;-83
2022/06/14 14:10:43;;;;;;;0.70;0.40;;;;;;;;;;5109138;27;20027;-84
2022/06/14 14:13:37;;;;;;;0.40;0.40;;;;;;;;;;5132192;27;20031;-84
2022/06/14 14:16:22;;;;;;;0.32;0.30;;;;;;;;;;5130828;27;20058;-85
2022/06/14 14:18:53;;;;;;;1.52;0.30;;;;;;;;;;5124549;27;20110;-87
2022/06/14 14:21:24;;;;;;;0.40;0.30;;;;;;;;;;5132636;27;20027;-82
2022/06/14 14:24:27;;;;;;;0.38;0.32;;;;;;;;;;5128678;27;20121;-84
2022/06/14 14:27:03;;;;;;;0.55;0.40;;;;;;;;;;5129378;27;20097;-82
2022/06/14 14:29:46;;;;;;;0.30;0.30;;;;;;;;;;5126181;27;20531;-88
2022/06/14 14:32:34;;;;;;;0.30;0.30;;;;;;;;;;5129140;28;20471;-86
2022/06/14 14:35:18;;;;;;;0.40;0.30;;;;;;;;;;5130705;27;20465;-85
2022/06/14 14:38:09;;;;;;;0.30;0.30;;;;;;;;;;5137085;27;20042;-86
2022/06/14 14:40:39;;;;;;;0.50;0.40;;;;;;;;;;5119694;27;20026;-85
2022/06/14 14:43:20;;;;;;;0.50;0.32;;;;;;;;;;5136519;27;20038;-88
2022/06/14 14:46:10;;;;;;;1.65;0.47;;;;;;;;;;5117755;27;20027;-85
2022/06/14 14:48:42;;;;;;;0.70;0.30;;;;;;;;;;5137772;27;20027;-84
2022/06/14 14:51:32;;;;;;;1.95;0.50;;;;;;;;;;5131265;27;20467;-84
2022/06/14 14:54:12;;;;;;;1.13;0.38;;;;;;;;;;5119388;27;20075;-87
2022/06/14 14:57:14;;;;;;;0.47;0.38;;;;;;;;;;5121293;27;20019;-85
2022/06/14 14:59:50;;;;;;;0.47;0.38;;;;;;;;;;5117178;27;20443;-86
2022/06/14 15:05:39;;;;;;;0.40;0.30;;;;;;;;;;5132647;27;20034;-82
2022/06/14 15:08:11;;;;;;;1.73;0.45;;;;;;;;;;5118459;27;20122;-83
2022/06/14 15:10:55;;;;;;;1.10;0.28;;;;;;;;;;5136272;27;20031;-83
2022/06/14 15:13:45;;;;;;;0.68;0.38;;;;;;;;;;5134949;27;20031;-83
2022/06/14 15:16:18;;;;;;;0.47;0.30;;;;;;;;;;5135374;27;20031;-83
2022/06/14 15:21:42;;;;;;;1.25;0.40;;;;;;;;;;5136663;27;20026;-83
2022/06/14 15:24:16;;;;;;;0.52;0.20;;;;;;;;;;5136793;27;20033;-83
2022/06/14 15:26:47;;;;;;;0.50;0.20;;;;;;;;;;5117466;27;20034;-83
2022/06/14 15:29:27;;;;;;;0.50;0.30;;;;;;;;;;5118631;27;20470;-84
2022/06/14 15:32:01;;;;;;;1.65;0.40;;;;;;;;;;5136598;27;20022;-84
2022/06/14 15:34:31;;;;;;;0.30;0.30;;;;;;;;;;5138535;27;20034;-84
2022/06/14 15:37:00;;;;;;;0.50;0.30;;;;;;;;;;5137929;27;20406;-84
2022/06/14 15:39:25;;;;;;;0.70;0.30;;;;;;;;;;5138726;27;20018;-82
2022/06/14 15:41:56;;;;;;;1.42;0.52;;;;;;;;;;5137813;27;20030;-84
2022/06/14 15:44:31;;;;;;;0.25;0.20;;;;;;;;;;5137700;27;20023;-82
2022/06/14 15:47:03;;;;;;;0.20;0.20;;;;;;;;;;5132464;27;20019;-82
2022/06/14 15:49:29;;;;;;;0.77;0.40;;;;;;;;;;5135368;27;20046;-82
2022/06/14 15:51:57;;;;;;;0.30;0.30;;;;;;;;;;5115981;27;20019;-81
2022/06/14 15:54:28;;;;;;;1.00;0.47;;;;;;;;;;5134195;27;20091;-82
2022/06/14 15:57:15;;;;;;;0.45;0.30;;;;;;;;;;5134986;27;20023;-82
2022/06/14 15:59:44;;;;;;;0.30;0.30;;;;;;;;;;5115704;27;20054;-82
2022/06/14 16:02:34;;;;;;;0.40;0.25;;;;;;;;;;5132212;27;20031;-84
2022/06/14 16:05:00;;;;;;;0.82;0.38;;;;;;;;;;5135240;27;20034;-82
2022/06/14 16:07:34;;;;;;;0.35;0.30;;;;;;;;;;5116421;27;20076;-83
2022/06/14 16:10:08;;;;;;;0.40;0.30;;;;;;;;;;5135183;27;20055;-83
2022/06/14 16:12:41;;;;;;;0.35;0.30;;;;;;;;;;5115263;27;20031;-82
2022/06/14 16:15:35;;;;;;;0.52;0.30;;;;;;;;;;5114268;27;20054;-83
2022/06/14 16:18:15;;;;;;;0.40;0.40;;;;;;;;;;5110741;27;20121;-83
2022/06/14 16:20:40;;;;;;;0.70;0.50;;;;;;;;;;5134706;27;20173;-83
2022/06/14 16:23:19;;;;;;;1.05;0.50;;;;;;;;;;5134430;27;20394;-83
2022/06/14 16:25:53;;;;;;;0.35;0.25;;;;;;;;;;5131086;27;20027;-83